sensor_id;sensor_type;location;lat;lon;timestamp;P1;durP1;ratioP1;P2;durP2;ratioP2
43682;SDS011;29285;52.128;21.060;2022-07-04T00:03:33;7.85;;;7.05;;
43682;SDS011;29285;52.128;21.060;2022-07-04T00:08:34;8.95;;;8.05;;
43682;SDS011;29285;52.128;21.060;2022-07-04T00:13:35;8.48;;;7.60;;
43682;SDS011;29285;52.128;21.060;2022-07-04T00:18:37;8.23;;;7.53;;
43682;SDS011;29285;52.128;21.060;2022-07-04T00:23:39;8.77;;;8.03;;
43682;SDS011;29285;52.128;21.060;2022-07-04T00:28:40;8.48;;;7.67;;
43682;SDS011;29285;52.128;21.060;2022-07-04T00:33:42;7.67;;;7.00;;
43682;SDS011;29285;52.128;21.060;2022-07-04T00:38:43;9.45;;;7.33;;
43682;SDS011;29285;52.128;21.060;2022-07-04T00:43:59;8.10;;;7.20;;
43682;SDS011;29285;52.128;21.060;2022-07-04T00:49:08;7.05;;;6.45;;
43682;SDS011;29285;52.128;21.060;2022-07-04T00:54:15;13.98;;;7.45;;
43682;SDS011;29285;52.128;21.060;2022-07-04T00:59:16;7.90;;;7.25;;
43682;SDS011;29285;52.128;21.060;2022-07-04T01:04:17;7.40;;;6.75;;
43682;SDS011;29285;52.128;21.060;2022-07-04T01:09:19;7.03;;;6.33;;
43682;SDS011;29285;52.128;21.060;2022-07-04T01:14:20;7.10;;;6.50;;
43682;SDS011;29285;52.128;21.060;2022-07-04T01:19:22;8.28;;;7.47;;
43682;SDS011;29285;52.128;21.060;2022-07-04T01:24:23;12.60;;;7.33;;
43682;SDS011;29285;52.128;21.060;2022-07-04T01:29:24;9.03;;;7.42;;
43682;SDS011;29285;52.128;21.060;2022-07-04T01:34:25;7.95;;;7.35;;
43682;SDS011;29285;52.128;21.060;2022-07-04T01:39:27;7.78;;;7.12;;
43682;SDS011;29285;52.128;21.060;2022-07-04T01:44:29;7.13;;;6.60;;
43682;SDS011;29285;52.128;21.060;2022-07-04T01:49:31;9.93;;;6.70;;
43682;SDS011;29285;52.128;21.060;2022-07-04T01:54:32;9.50;;;7.40;;
43682;SDS011;29285;52.128;21.060;2022-07-04T01:59:33;9.23;;;8.35;;
43682;SDS011;29285;52.128;21.060;2022-07-04T02:35:54;9.78;;;8.93;;
43682;SDS011;29285;52.128;21.060;2022-07-04T02:40:55;9.23;;;8.40;;
43682;SDS011;29285;52.128;21.060;2022-07-04T02:45:57;9.68;;;8.73;;
43682;SDS011;29285;52.128;21.060;2022-07-04T02:50:58;8.68;;;7.97;;
43682;SDS011;29285;52.128;21.060;2022-07-04T02:55:59;9.08;;;8.28;;
43682;SDS011;29285;52.128;21.060;2022-07-04T03:01:03;10.75;;;9.55;;
43682;SDS011;29285;52.128;21.060;2022-07-04T03:06:04;12.03;;;10.93;;
43682;SDS011;29285;52.128;21.060;2022-07-04T03:11:07;11.60;;;10.60;;
43682;SDS011;29285;52.128;21.060;2022-07-04T03:16:09;11.83;;;10.72;;
43682;SDS011;29285;52.128;21.060;2022-07-04T03:21:10;12.50;;;11.20;;
43682;SDS011;29285;52.128;21.060;2022-07-04T03:26:12;12.23;;;10.90;;
43682;SDS011;29285;52.128;21.060;2022-07-04T03:31:13;11.08;;;10.18;;
43682;SDS011;29285;52.128;21.060;2022-07-04T03:36:14;14.13;;;12.30;;
43682;SDS011;29285;52.128;21.060;2022-07-04T03:41:16;11.55;;;10.65;;
43682;SDS011;29285;52.128;21.060;2022-07-04T03:46:17;11.85;;;10.80;;
43682;SDS011;29285;52.128;21.060;2022-07-04T03:51:19;12.00;;;10.90;;
43682;SDS011;29285;52.128;21.060;2022-07-04T03:56:20;11.45;;;10.48;;
43682;SDS011;29285;52.128;21.060;2022-07-04T04:01:21;11.73;;;10.60;;
43682;SDS011;29285;52.128;21.060;2022-07-04T04:06:23;11.97;;;10.90;;
43682;SDS011;29285;52.128;21.060;2022-07-04T04:11:24;12.43;;;11.38;;
43682;SDS011;29285;52.128;21.060;2022-07-04T04:16:25;14.10;;;11.25;;
43682;SDS011;29285;52.128;21.060;2022-07-04T04:21:27;10.95;;;9.85;;
43682;SDS011;29285;52.128;21.060;2022-07-04T04:26:28;11.28;;;10.38;;
43682;SDS011;29285;52.128;21.060;2022-07-04T04:31:30;10.93;;;9.93;;
43682;SDS011;29285;52.128;21.060;2022-07-04T04:36:32;11.10;;;10.03;;
43682;SDS011;29285;52.128;21.060;2022-07-04T04:41:33;11.55;;;10.35;;
43682;SDS011;29285;52.128;21.060;2022-07-04T04:46:34;8.90;;;8.20;;
43682;SDS011;29285;52.128;21.060;2022-07-04T04:51:35;10.65;;;9.65;;
43682;SDS011;29285;52.128;21.060;2022-07-04T04:56:38;11.12;;;9.35;;
43682;SDS011;29285;52.128;21.060;2022-07-04T05:01:40;10.72;;;9.70;;
43682;SDS011;29285;52.128;21.060;2022-07-04T05:06:41;9.23;;;8.18;;
43682;SDS011;29285;52.128;21.060;2022-07-04T05:11:42;9.83;;;8.98;;
43682;SDS011;29285;52.128;21.060;2022-07-04T05:16:44;9.53;;;8.73;;
43682;SDS011;29285;52.128;21.060;2022-07-04T05:21:45;8.83;;;8.03;;
43682;SDS011;29285;52.128;21.060;2022-07-04T05:26:46;9.40;;;8.50;;
43682;SDS011;29285;52.128;21.060;2022-07-04T05:31:48;9.73;;;8.75;;
43682;SDS011;29285;52.128;21.060;2022-07-04T05:36:49;11.83;;;9.10;;
43682;SDS011;29285;52.128;21.060;2022-07-04T05:41:51;8.93;;;8.23;;
43682;SDS011;29285;52.128;21.060;2022-07-04T05:46:52;11.73;;;9.35;;
43682;SDS011;29285;52.128;21.060;2022-07-04T05:51:53;10.40;;;9.35;;
43682;SDS011;29285;52.128;21.060;2022-07-04T05:56:55;10.18;;;9.28;;
43682;SDS011;29285;52.128;21.060;2022-07-04T06:01:56;10.98;;;10.08;;
43682;SDS011;29285;52.128;21.060;2022-07-04T06:06:58;10.45;;;9.45;;
43682;SDS011;29285;52.128;21.060;2022-07-04T06:11:59;11.22;;;8.88;;
43682;SDS011;29285;52.128;21.060;2022-07-04T06:17:00;12.45;;;8.70;;
43682;SDS011;29285;52.128;21.060;2022-07-04T06:22:02;9.03;;;8.15;;
43682;SDS011;29285;52.128;21.060;2022-07-04T06:27:04;11.33;;;8.37;;
43682;SDS011;29285;52.128;21.060;2022-07-04T06:32:06;8.33;;;7.42;;
43682;SDS011;29285;52.128;21.060;2022-07-04T06:37:08;9.15;;;7.90;;
43682;SDS011;29285;52.128;21.060;2022-07-04T06:42:09;8.03;;;7.22;;
43682;SDS011;29285;52.128;21.060;2022-07-04T06:47:10;7.62;;;6.50;;
43682;SDS011;29285;52.128;21.060;2022-07-04T06:52:12;7.08;;;6.37;;
43682;SDS011;29285;52.128;21.060;2022-07-04T06:57:13;7.35;;;6.60;;
43682;SDS011;29285;52.128;21.060;2022-07-04T07:02:14;8.30;;;5.97;;
43682;SDS011;29285;52.128;21.060;2022-07-04T07:07:16;7.00;;;6.40;;
43682;SDS011;29285;52.128;21.060;2022-07-04T07:12:17;6.70;;;6.10;;
43682;SDS011;29285;52.128;21.060;2022-07-04T07:17:18;6.10;;;5.58;;
43682;SDS011;29285;52.128;21.060;2022-07-04T07:22:20;6.80;;;5.53;;
43682;SDS011;29285;52.128;21.060;2022-07-04T07:27:21;5.37;;;4.92;;
43682;SDS011;29285;52.128;21.060;2022-07-04T07:32:23;4.92;;;4.40;;
43682;SDS011;29285;52.128;21.060;2022-07-04T07:37:24;5.97;;;5.00;;
43682;SDS011;29285;52.128;21.060;2022-07-04T07:42:26;6.40;;;5.22;;
43682;SDS011;29285;52.128;21.060;2022-07-04T07:47:27;5.83;;;5.25;;
43682;SDS011;29285;52.128;21.060;2022-07-04T07:52:29;6.03;;;5.37;;
43682;SDS011;29285;52.128;21.060;2022-07-04T07:57:31;5.42;;;4.85;;
43682;SDS011;29285;52.128;21.060;2022-07-04T08:02:32;5.85;;;4.70;;
43682;SDS011;29285;52.128;21.060;2022-07-04T08:07:52;4.75;;;4.28;;
43682;SDS011;29285;52.128;21.060;2022-07-04T08:12:53;4.37;;;3.98;;
43682;SDS011;29285;52.128;21.060;2022-07-04T08:22:57;5.20;;;3.12;;
43682;SDS011;29285;52.128;21.060;2022-07-04T08:27:59;4.67;;;2.65;;
43682;SDS011;29285;52.128;21.060;2022-07-04T08:33:00;5.37;;;3.08;;
43682;SDS011;29285;52.128;21.060;2022-07-04T08:38:02;3.75;;;3.22;;
43682;SDS011;29285;52.128;21.060;2022-07-04T08:43:03;4.20;;;3.12;;
43682;SDS011;29285;52.128;21.060;2022-07-04T08:48:06;4.85;;;3.83;;
43682;SDS011;29285;52.128;21.060;2022-07-04T08:53:10;4.45;;;2.85;;
43682;SDS011;29285;52.128;21.060;2022-07-04T08:58:14;3.05;;;2.83;;
43682;SDS011;29285;52.128;21.060;2022-07-04T09:03:30;3.62;;;2.70;;
43682;SDS011;29285;52.128;21.060;2022-07-04T09:08:32;4.42;;;3.55;;
43682;SDS011;29285;52.128;21.060;2022-07-04T09:13:35;4.67;;;3.37;;
43682;SDS011;29285;52.128;21.060;2022-07-04T09:18:36;4.30;;;3.08;;
43682;SDS011;29285;52.128;21.060;2022-07-04T09:23:39;7.50;;;3.30;;
43682;SDS011;29285;52.128;21.060;2022-07-04T09:28:43;3.20;;;2.90;;
43682;SDS011;29285;52.128;21.060;2022-07-04T09:33:58;4.35;;;3.02;;
43682;SDS011;29285;52.128;21.060;2022-07-04T09:39:14;3.25;;;2.50;;
43682;SDS011;29285;52.128;21.060;2022-07-04T09:44:22;5.28;;;2.77;;
43682;SDS011;29285;52.128;21.060;2022-07-04T09:49:37;3.83;;;2.72;;
43682;SDS011;29285;52.128;21.060;2022-07-04T09:54:38;3.72;;;2.75;;
43682;SDS011;29285;52.128;21.060;2022-07-04T09:59:40;2.60;;;2.27;;
43682;SDS011;29285;52.128;21.060;2022-07-04T10:09:52;2.55;;;2.10;;
43682;SDS011;29285;52.128;21.060;2022-07-04T10:14:54;2.30;;;2.10;;
43682;SDS011;29285;52.128;21.060;2022-07-04T10:19:56;2.30;;;2.10;;
43682;SDS011;29285;52.128;21.060;2022-07-04T10:24:58;2.47;;;2.27;;
43682;SDS011;29285;52.128;21.060;2022-07-04T10:30:00;2.90;;;2.08;;
43682;SDS011;29285;52.128;21.060;2022-07-04T10:35:05;2.65;;;2.37;;
43682;SDS011;29285;52.128;21.060;2022-07-04T10:40:07;6.47;;;2.40;;
43682;SDS011;29285;52.128;21.060;2022-07-04T10:45:10;4.22;;;2.62;;
43682;SDS011;29285;52.128;21.060;2022-07-04T10:50:28;4.35;;;2.20;;
43682;SDS011;29285;52.128;21.060;2022-07-04T10:55:29;3.05;;;2.45;;
43682;SDS011;29285;52.128;21.060;2022-07-04T11:00:31;2.47;;;2.02;;
43682;SDS011;29285;52.128;21.060;2022-07-04T11:05:32;3.02;;;2.50;;
43682;SDS011;29285;52.128;21.060;2022-07-04T11:10:36;2.87;;;2.25;;
43682;SDS011;29285;52.128;21.060;2022-07-04T11:20:48;3.22;;;2.02;;
43682;SDS011;29285;52.128;21.060;2022-07-04T11:25:50;4.72;;;2.33;;
43682;SDS011;29285;52.128;21.060;2022-07-04T11:30:55;2.40;;;1.82;;
43682;SDS011;29285;52.128;21.060;2022-07-04T11:41:18;3.00;;;2.50;;
43682;SDS011;29285;52.128;21.060;2022-07-04T11:46:41;2.70;;;2.35;;
43682;SDS011;29285;52.128;21.060;2022-07-04T11:51:46;3.50;;;1.90;;
43682;SDS011;29285;52.128;21.060;2022-07-04T11:56:49;2.08;;;1.70;;
43682;SDS011;29285;52.128;21.060;2022-07-04T12:01:51;5.15;;;2.55;;
43682;SDS011;29285;52.128;21.060;2022-07-04T12:06:52;2.50;;;2.30;;
43682;SDS011;29285;52.128;21.060;2022-07-04T12:11:58;3.87;;;2.70;;
43682;SDS011;29285;52.128;21.060;2022-07-04T12:27:37;4.08;;;2.40;;
43682;SDS011;29285;52.128;21.060;2022-07-04T12:32:45;2.47;;;2.25;;
43682;SDS011;29285;52.128;21.060;2022-07-04T12:38:09;7.40;;;2.47;;
43682;SDS011;29285;52.128;21.060;2022-07-04T12:43:13;3.27;;;2.40;;
43682;SDS011;29285;52.128;21.060;2022-07-04T12:48:18;3.83;;;2.25;;
43682;SDS011;29285;52.128;21.060;2022-07-04T12:53:26;4.47;;;2.10;;
43682;SDS011;29285;52.128;21.060;2022-07-04T12:58:34;4.40;;;2.12;;
43682;SDS011;29285;52.128;21.060;2022-07-04T13:03:35;6.00;;;2.20;;
43682;SDS011;29285;52.128;21.060;2022-07-04T13:08:36;3.10;;;2.08;;
43682;SDS011;29285;52.128;21.060;2022-07-04T13:13:38;3.80;;;2.15;;
43682;SDS011;29285;52.128;21.060;2022-07-04T13:18:39;5.37;;;4.97;;
43682;SDS011;29285;52.128;21.060;2022-07-04T13:23:40;2.55;;;2.30;;
43682;SDS011;29285;52.128;21.060;2022-07-04T13:28:42;3.33;;;2.45;;
43682;SDS011;29285;52.128;21.060;2022-07-04T13:33:43;2.62;;;2.42;;
43682;SDS011;29285;52.128;21.060;2022-07-04T13:38:44;2.72;;;2.50;;
43682;SDS011;29285;52.128;21.060;2022-07-04T13:43:46;3.27;;;2.30;;
43682;SDS011;29285;52.128;21.060;2022-07-04T13:48:47;2.13;;;2.00;;
43682;SDS011;29285;52.128;21.060;2022-07-04T13:53:49;2.95;;;2.30;;
43682;SDS011;29285;52.128;21.060;2022-07-04T13:58:50;3.33;;;2.22;;
43682;SDS011;29285;52.128;21.060;2022-07-04T14:03:52;3.30;;;2.43;;
43682;SDS011;29285;52.128;21.060;2022-07-04T14:08:53;4.75;;;2.35;;
43682;SDS011;29285;52.128;21.060;2022-07-04T14:13:55;2.35;;;2.15;;
43682;SDS011;29285;52.128;21.060;2022-07-04T14:18:56;2.17;;;2.00;;
43682;SDS011;29285;52.128;21.060;2022-07-04T14:23:58;2.67;;;2.35;;
43682;SDS011;29285;52.128;21.060;2022-07-04T14:28:59;4.85;;;2.33;;
43682;SDS011;29285;52.128;21.060;2022-07-04T14:34:01;7.77;;;2.43;;
43682;SDS011;29285;52.128;21.060;2022-07-04T14:39:03;4.28;;;2.40;;
43682;SDS011;29285;52.128;21.060;2022-07-04T14:44:06;2.83;;;2.62;;
43682;SDS011;29285;52.128;21.060;2022-07-04T14:49:07;5.23;;;2.30;;
43682;SDS011;29285;52.128;21.060;2022-07-04T14:54:09;3.47;;;2.42;;
43682;SDS011;29285;52.128;21.060;2022-07-04T14:59:11;3.17;;;2.50;;
43682;SDS011;29285;52.128;21.060;2022-07-04T15:04:12;4.20;;;2.73;;
43682;SDS011;29285;52.128;21.060;2022-07-04T15:09:13;2.80;;;2.60;;
43682;SDS011;29285;52.128;21.060;2022-07-04T15:14:15;3.70;;;2.33;;
43682;SDS011;29285;52.128;21.060;2022-07-04T15:19:17;2.92;;;2.72;;
43682;SDS011;29285;52.128;21.060;2022-07-04T15:24:20;2.37;;;2.17;;
43682;SDS011;29285;52.128;21.060;2022-07-04T15:29:21;2.67;;;2.47;;
43682;SDS011;29285;52.128;21.060;2022-07-04T15:39:24;3.70;;;2.47;;
43682;SDS011;29285;52.128;21.060;2022-07-04T15:44:26;3.65;;;3.35;;
43682;SDS011;29285;52.128;21.060;2022-07-04T15:49:27;3.95;;;2.83;;
43682;SDS011;29285;52.128;21.060;2022-07-04T15:54:28;5.22;;;3.25;;
43682;SDS011;29285;52.128;21.060;2022-07-04T15:59:32;3.83;;;3.50;;
43682;SDS011;29285;52.128;21.060;2022-07-04T16:04:33;3.13;;;2.90;;
43682;SDS011;29285;52.128;21.060;2022-07-04T16:09:34;5.47;;;3.33;;
43682;SDS011;29285;52.128;21.060;2022-07-04T16:14:36;8.90;;;3.95;;
43682;SDS011;29285;52.128;21.060;2022-07-04T16:19:37;3.85;;;3.05;;
43682;SDS011;29285;52.128;21.060;2022-07-04T16:24:38;3.60;;;3.30;;
43682;SDS011;29285;52.128;21.060;2022-07-04T16:29:40;3.17;;;2.92;;
43682;SDS011;29285;52.128;21.060;2022-07-04T16:34:41;6.47;;;3.67;;
43682;SDS011;29285;52.128;21.060;2022-07-04T16:39:43;4.30;;;3.20;;
43682;SDS011;29285;52.128;21.060;2022-07-04T16:44:44;3.33;;;3.10;;
43682;SDS011;29285;52.128;21.060;2022-07-04T16:49:45;3.40;;;3.12;;
43682;SDS011;29285;52.128;21.060;2022-07-04T16:54:47;5.47;;;3.77;;
43682;SDS011;29285;52.128;21.060;2022-07-04T16:59:48;5.58;;;3.95;;
43682;SDS011;29285;52.128;21.060;2022-07-04T17:04:49;4.33;;;3.92;;
43682;SDS011;29285;52.128;21.060;2022-07-04T17:09:51;3.67;;;3.40;;
43682;SDS011;29285;52.128;21.060;2022-07-04T17:14:52;5.10;;;3.53;;
43682;SDS011;29285;52.128;21.060;2022-07-04T17:19:54;5.05;;;3.55;;
43682;SDS011;29285;52.128;21.060;2022-07-04T17:24:55;4.23;;;3.87;;
43682;SDS011;29285;52.128;21.060;2022-07-04T17:29:57;4.28;;;3.98;;
43682;SDS011;29285;52.128;21.060;2022-07-04T17:34:58;5.25;;;3.95;;
43682;SDS011;29285;52.128;21.060;2022-07-04T17:40:00;6.28;;;4.20;;
43682;SDS011;29285;52.128;21.060;2022-07-04T17:45:04;10.05;;;4.22;;
43682;SDS011;29285;52.128;21.060;2022-07-04T17:50:07;4.45;;;3.87;;
43682;SDS011;29285;52.128;21.060;2022-07-04T17:55:10;5.03;;;3.75;;
43682;SDS011;29285;52.128;21.060;2022-07-04T18:00:12;4.12;;;3.47;;
43682;SDS011;29285;52.128;21.060;2022-07-04T18:05:14;4.03;;;3.70;;
43682;SDS011;29285;52.128;21.060;2022-07-04T18:10:15;4.22;;;3.90;;
43682;SDS011;29285;52.128;21.060;2022-07-04T18:15:16;4.25;;;3.92;;
43682;SDS011;29285;52.128;21.060;2022-07-04T18:20:17;4.85;;;4.45;;
43682;SDS011;29285;52.128;21.060;2022-07-04T18:25:19;8.05;;;5.12;;
43682;SDS011;29285;52.128;21.060;2022-07-04T18:30:20;5.97;;;4.75;;
43682;SDS011;29285;52.128;21.060;2022-07-04T18:35:21;5.87;;;4.42;;
43682;SDS011;29285;52.128;21.060;2022-07-04T18:40:23;8.55;;;5.35;;
43682;SDS011;29285;52.128;21.060;2022-07-04T18:45:43;5.53;;;5.03;;
43682;SDS011;29285;52.128;21.060;2022-07-04T18:50:44;5.15;;;4.75;;
43682;SDS011;29285;52.128;21.060;2022-07-04T18:55:46;5.53;;;4.42;;
43682;SDS011;29285;52.128;21.060;2022-07-04T19:00:48;8.93;;;4.45;;
43682;SDS011;29285;52.128;21.060;2022-07-04T19:05:49;8.93;;;4.55;;
43682;SDS011;29285;52.128;21.060;2022-07-04T19:10:52;5.17;;;4.60;;
43682;SDS011;29285;52.128;21.060;2022-07-04T19:15:54;6.80;;;5.45;;
43682;SDS011;29285;52.128;21.060;2022-07-04T19:20:55;6.20;;;5.35;;
43682;SDS011;29285;52.128;21.060;2022-07-04T19:25:57;6.75;;;6.05;;
43682;SDS011;29285;52.128;21.060;2022-07-04T19:30:59;8.40;;;5.37;;
43682;SDS011;29285;52.128;21.060;2022-07-04T19:36:02;6.17;;;5.40;;
43682;SDS011;29285;52.128;21.060;2022-07-04T19:41:04;6.33;;;4.72;;
43682;SDS011;29285;52.128;21.060;2022-07-04T19:46:05;6.30;;;4.97;;
43682;SDS011;29285;52.128;21.060;2022-07-04T19:51:07;8.30;;;5.55;;
43682;SDS011;29285;52.128;21.060;2022-07-04T19:56:08;5.65;;;5.15;;
43682;SDS011;29285;52.128;21.060;2022-07-04T20:01:10;8.70;;;5.20;;
43682;SDS011;29285;52.128;21.060;2022-07-04T20:06:11;6.85;;;5.55;;
43682;SDS011;29285;52.128;21.060;2022-07-04T20:11:13;9.00;;;5.97;;
43682;SDS011;29285;52.128;21.060;2022-07-04T20:16:15;6.10;;;5.60;;
43682;SDS011;29285;52.128;21.060;2022-07-04T20:21:16;5.92;;;5.53;;
43682;SDS011;29285;52.128;21.060;2022-07-04T20:26:17;6.70;;;5.72;;
43682;SDS011;29285;52.128;21.060;2022-07-04T20:31:19;8.03;;;7.27;;
43682;SDS011;29285;52.128;21.060;2022-07-04T20:36:21;7.35;;;6.67;;
43682;SDS011;29285;52.128;21.060;2022-07-04T20:41:22;7.53;;;6.85;;
43682;SDS011;29285;52.128;21.060;2022-07-04T20:46:24;8.08;;;7.28;;
43682;SDS011;29285;52.128;21.060;2022-07-04T20:51:25;9.58;;;6.95;;
43682;SDS011;29285;52.128;21.060;2022-07-04T20:56:26;7.85;;;7.12;;
43682;SDS011;29285;52.128;21.060;2022-07-04T21:01:28;12.45;;;7.30;;
43682;SDS011;29285;52.128;21.060;2022-07-04T21:06:29;7.40;;;6.70;;
43682;SDS011;29285;52.128;21.060;2022-07-04T21:11:30;7.28;;;6.78;;
43682;SDS011;29285;52.128;21.060;2022-07-04T21:16:32;7.40;;;6.50;;
43682;SDS011;29285;52.128;21.060;2022-07-04T21:21:33;7.80;;;7.00;;
43682;SDS011;29285;52.128;21.060;2022-07-04T21:26:34;8.00;;;6.92;;
43682;SDS011;29285;52.128;21.060;2022-07-04T21:31:36;13.18;;;7.30;;
43682;SDS011;29285;52.128;21.060;2022-07-04T21:36:37;8.35;;;7.55;;
43682;SDS011;29285;52.128;21.060;2022-07-04T21:41:38;12.55;;;7.17;;
43682;SDS011;29285;52.128;21.060;2022-07-04T21:46:40;8.90;;;7.25;;
43682;SDS011;29285;52.128;21.060;2022-07-04T21:51:41;9.95;;;8.20;;
43682;SDS011;29285;52.128;21.060;2022-07-04T21:56:42;15.85;;;7.50;;
43682;SDS011;29285;52.128;21.060;2022-07-04T22:01:44;10.23;;;8.28;;
43682;SDS011;29285;52.128;21.060;2022-07-04T22:06:45;9.18;;;7.22;;
43682;SDS011;29285;52.128;21.060;2022-07-04T22:11:46;11.28;;;7.60;;
43682;SDS011;29285;52.128;21.060;2022-07-04T22:16:48;8.18;;;7.37;;
43682;SDS011;29285;52.128;21.060;2022-07-04T22:21:49;8.33;;;7.50;;
43682;SDS011;29285;52.128;21.060;2022-07-04T22:26:50;8.95;;;8.15;;
43682;SDS011;29285;52.128;21.060;2022-07-04T22:31:51;8.60;;;7.87;;
43682;SDS011;29285;52.128;21.060;2022-07-04T22:36:53;9.40;;;8.25;;
43682;SDS011;29285;52.128;21.060;2022-07-04T22:41:54;9.78;;;8.53;;
43682;SDS011;29285;52.128;21.060;2022-07-04T22:46:55;9.68;;;8.75;;
43682;SDS011;29285;52.128;21.060;2022-07-04T22:51:57;9.70;;;8.03;;
43682;SDS011;29285;52.128;21.060;2022-07-04T22:56:58;12.05;;;8.90;;
43682;SDS011;29285;52.128;21.060;2022-07-04T23:02:00;9.93;;;8.88;;
43682;SDS011;29285;52.128;21.060;2022-07-04T23:07:01;9.25;;;8.43;;
43682;SDS011;29285;52.128;21.060;2022-07-04T23:12:03;11.63;;;9.15;;
43682;SDS011;29285;52.128;21.060;2022-07-04T23:17:05;9.98;;;8.83;;
43682;SDS011;29285;52.128;21.060;2022-07-04T23:22:07;10.23;;;8.80;;
43682;SDS011;29285;52.128;21.060;2022-07-04T23:27:09;11.75;;;9.58;;
43682;SDS011;29285;52.128;21.060;2022-07-04T23:32:11;10.85;;;8.88;;
43682;SDS011;29285;52.128;21.060;2022-07-04T23:37:12;10.08;;;9.05;;
43682;SDS011;29285;52.128;21.060;2022-07-04T23:42:13;11.20;;;9.43;;
43682;SDS011;29285;52.128;21.060;2022-07-04T23:47:15;10.65;;;9.55;;
43682;SDS011;29285;52.128;21.060;2022-07-04T23:52:16;10.18;;;9.18;;
43682;SDS011;29285;52.128;21.060;2022-07-04T23:57:17;10.60;;;9.70;;
